Impacts METAR Board INFO
IDs:

KBWI - Baltimore-Washington, MD, US

Updated at: 1544 UTC 18 Jan 2018
Potential Impact None Slight Moderate High
Time18/03Z 18/04Z 18/05Z 18/06Z 18/07Z 18/08Z 18/09Z 18/10Z 18/11Z 18/12Z 18/13Z 18/14Z 18/15Z
VIS10 10 10 10 10 10 10 10 10 10 10 10 10
CIG200 -- 150 140 140 -- -- -- -- -- -- -- --
CoverBKNSCTBKNBKNBKNSCTSCTFEWFEWFEWFEWFEWFEW
FltCatVFRVFRVFRVFRVFRVFRVFRVFRVFRVFRVFRVFRVFR
WX--------------------------
WDir300290300290290300250270220240290280290
WSpd8 7 8 6 7 10 5 3 3 3 6 7 16
WGst-- -- -- -- -- -- -- -- -- -- -- -- 24
Raw hourly METARs
KBWI 180254Z 30008KT 10SM SCT070 BKN200 M07/M14 A3029 RMK AO2 SLP259 T10671139 55000
KBWI 180354Z 29007KT 10SM FEW075 SCT200 M07/M14 A3028 RMK AO2 SLP257 T10721139
KBWI 180454Z 30008KT 10SM FEW075 BKN150 M08/M14 A3027 RMK AO2 SLP252 T10781139 400111078
KBWI 180554Z 29006KT 10SM BKN140 M08/M13 A3025 RMK AO2 SLP246 4/001 T10781133 11056 21078 58014
KBWI 180654Z 29007KT 10SM BKN140 M08/M13 A3022 RMK AO2 SLP235 T10781133
KBWI 180754Z 30010KT 10SM SCT090 SCT130 M08/M13 A3015 RMK AO2 PRESFR SLP212 T10831133
KBWI 180854Z 25005KT 10SM FEW090 SCT130 M08/M14 A3016 RMK AO2 SLP216 T10831139 55029
KBWI 180954Z 27003KT 10SM FEW130 M10/M14 A3014 RMK AO2 SLP209 T11001139
KBWI 181054Z 22003KT 10SM FEW130 M10/M14 A3016 RMK AO2 SLP217 T11001139
KBWI 181154Z 24003KT 10SM FEW130 M11/M14 A3017 RMK AO2 SLP219 4/001 70001 T11061139 11078 21117 53003
KBWI 181254Z 29006KT 10SM FEW130 M10/M13 A3016 RMK AO2 SLP216 T11001133
KBWI 181354Z 28007KT 10SM FEW130 M05/M13 A3016 RMK AO2 SLP214 T10501133
KBWI 181454Z 29016G24KT 10SM FEW130 M03/M13 A3015 RMK AO2 SLP212 T10281133 56005